createdAt,value
2022-09-28T00:04:15.928Z,79.67
2022-09-28T00:09:17.937Z,79.94
2022-09-28T00:14:20.644Z,80.14
2022-09-28T00:19:22.525Z,80.03
2022-09-28T00:24:27.717Z,80.22
2022-09-28T00:29:34.672Z,80.43
2022-09-28T00:34:41.278Z,80.24
2022-09-28T00:39:43.507Z,80.35
2022-09-28T00:44:56.186Z,80.12
2022-09-28T00:50:03.603Z,80.41
2022-09-28T00:55:11.617Z,80.56
2022-09-28T01:00:14.576Z,80.54
2022-09-28T01:05:18.174Z,80.92
2022-09-28T01:10:19.915Z,81.13
2022-09-28T01:15:23.185Z,81.05
2022-09-28T01:20:41.283Z,81.56
2022-09-28T01:26:10.313Z,81.66
2022-09-28T01:31:17.430Z,81.64
2022-09-28T01:36:25.907Z,81.57
2022-09-28T01:41:31.724Z,81.85
2022-09-28T01:46:42.200Z,81.96
2022-09-28T01:51:53.686Z,82.02
2022-09-28T01:57:05.796Z,81.85
2022-09-28T02:02:16.911Z,81.93
2022-09-28T02:07:24.342Z,81.96
2022-09-28T02:12:43.373Z,82.06
2022-09-28T02:17:45.952Z,81.89
2022-09-28T02:23:01.829Z,81.56
2022-09-28T02:28:10.014Z,81.81
2022-09-28T02:33:51.685Z,81.94
2022-09-28T02:38:54.253Z,81.96
2022-09-28T02:44:26.360Z,81.94
2022-09-28T02:49:37.114Z,81.88
2022-09-28T02:55:16.567Z,82.16
2022-09-28T03:00:21.702Z,82.81
2022-09-28T03:05:37.577Z,82.69
2022-09-28T03:10:56.219Z,82.12
2022-09-28T03:16:15.603Z,82.58
2022-09-28T03:21:19.209Z,82.85
2022-09-28T03:26:20.832Z,82.89
2022-09-28T03:31:24.783Z,82.87
2022-09-28T03:36:26.825Z,83.03
2022-09-28T03:41:28.850Z,83.69
2022-09-28T03:46:30.754Z,84.05
2022-09-28T03:51:37.781Z,84.28
2022-09-28T03:56:40.739Z,83.97
2022-09-28T04:01:42.414Z,83.67
2022-09-28T04:06:44.707Z,83.66
2022-09-28T04:12:02.902Z,84.49
2022-09-28T04:17:07.238Z,84.68
2022-09-28T04:22:09.569Z,84.53
2022-09-28T04:27:31.517Z,84.48
2022-09-28T04:32:35.190Z,84.50
2022-09-28T04:37:36.999Z,84.58
2022-09-28T04:42:38.678Z,84.82
2022-09-28T04:47:40.353Z,84.52
2022-09-28T04:52:44.876Z,84.59
2022-09-28T04:57:46.622Z,85.00
2022-09-28T05:02:48.675Z,84.77
2022-09-28T05:08:26.231Z,84.96
2022-09-28T05:13:28.956Z,84.57
2022-09-28T05:18:31.345Z,84.66
2022-09-28T05:23:37.774Z,84.80
2022-09-28T05:28:39.738Z,84.44
2022-09-28T05:33:59.971Z,84.55
2022-09-28T05:39:03.979Z,84.65
2022-09-28T05:44:05.969Z,84.67
2022-09-28T05:49:07.621Z,84.55
2022-09-28T05:54:09.321Z,84.17
2022-09-28T05:59:16.627Z,83.77
2022-09-28T06:04:18.586Z,83.70
2022-09-28T06:09:26.234Z,84.00
2022-09-28T06:14:36.432Z,83.96
2022-09-28T06:19:39.191Z,83.69
2022-09-28T06:25:19.656Z,83.96
2022-09-28T06:30:22.366Z,84.27
2022-09-28T06:35:26.063Z,84.23
2022-09-28T06:40:28.494Z,84.34
2022-09-28T06:45:30.847Z,84.38
2022-09-28T06:50:46.360Z,84.68
2022-09-28T06:56:02.587Z,84.15
2022-09-28T07:01:05.897Z,82.51
2022-09-28T07:06:18.316Z,82.83
2022-09-28T07:11:41.697Z,82.76
2022-09-28T07:17:10.132Z,83.04
2022-09-28T07:22:08.100Z,83.35
2022-09-28T07:27:10.191Z,84.10
2022-09-28T07:37:59.514Z,85.47
2022-09-28T07:43:07.901Z,85.49
2022-09-28T07:48:09.769Z,85.89
2022-09-28T07:53:31.931Z,86.23
2022-09-28T07:59:09.021Z,87.31
2022-09-28T08:04:33.957Z,88.32
2022-09-28T08:09:35.902Z,89.29
2022-09-28T08:14:56.588Z,90.55
2022-09-28T08:20:27.658Z,89.78
2022-09-28T08:25:29.661Z,90.76
2022-09-28T08:30:31.793Z,89.26
2022-09-28T08:36:01.638Z,88.65
2022-09-28T08:41:43.740Z,86.24
2022-09-28T08:47:05.708Z,85.68
2022-09-28T08:52:30.040Z,85.98
2022-09-28T08:58:10.828Z,86.96
2022-09-28T09:03:15.042Z,86.54
2022-09-28T09:08:25.950Z,86.65
2022-09-28T09:13:47.610Z,86.28
2022-09-28T09:19:16.411Z,85.98
2022-09-28T09:24:45.293Z,84.55
2022-09-28T09:29:56.261Z,84.53
2022-09-28T09:35:05.599Z,84.17
2022-09-28T09:40:44.774Z,81.23
2022-09-28T09:46:07.970Z,81.98
2022-09-28T09:51:45.070Z,81.31
2022-09-28T09:56:55.028Z,80.47
2022-09-28T10:02:28.688Z,80.44
2022-09-28T10:07:46.542Z,79.13
2022-09-28T10:12:52.332Z,77.82
2022-09-28T10:17:59.041Z,76.14
2022-09-28T10:23:33.845Z,75.67
2022-09-28T10:28:48.656Z,75.48
2022-09-28T10:33:53.253Z,75.94
2022-09-28T10:38:55.912Z,76.58
2022-09-28T10:44:08.878Z,76.49
2022-09-28T10:49:18.772Z,74.72
2022-09-28T10:54:31.536Z,73.48
2022-09-28T10:59:42.062Z,73.87
2022-09-28T11:05:01.802Z,73.97
2022-09-28T11:10:20.155Z,74.30
2022-09-28T11:15:27.729Z,74.84
2022-09-28T11:20:35.721Z,75.20
2022-09-28T11:25:41.194Z,74.41
2022-09-28T11:30:52.667Z,75.06
2022-09-28T11:36:13.576Z,74.75
2022-09-28T11:41:39.648Z,75.32
2022-09-28T11:47:08.382Z,75.58
2022-09-28T11:52:25.349Z,76.00
2022-09-28T11:57:32.372Z,75.04
2022-09-28T12:02:45.373Z,75.37
2022-09-28T12:07:59.005Z,76.87
2022-09-28T12:13:25.369Z,76.28
2022-09-28T12:18:30.446Z,75.78
2022-09-28T12:23:35.788Z,76.21
2022-09-28T12:28:53.457Z,76.40
2022-09-28T12:33:55.133Z,74.86
2022-09-28T12:39:40.830Z,75.08
2022-09-28T12:44:40.866Z,74.35
2022-09-28T12:55:36.114Z,73.47
2022-09-28T13:01:02.904Z,73.21
2022-09-28T13:06:33.657Z,72.94
2022-09-28T13:11:51.884Z,73.22
2022-09-28T13:17:16.450Z,72.78
2022-09-28T13:22:30.173Z,73.54
2022-09-28T13:27:40.668Z,73.83
2022-09-28T13:32:44.121Z,74.35
2022-09-28T13:37:46.208Z,73.80
2022-09-28T13:42:47.718Z,73.78
2022-09-28T13:48:20.520Z,73.57
2022-09-28T13:53:25.342Z,72.86
2022-09-28T13:58:43.420Z,73.79
2022-09-28T14:04:16.569Z,73.36
2022-09-28T14:09:41.594Z,74.38
2022-09-28T14:14:51.672Z,74.02
2022-09-28T14:20:04.832Z,73.80
2022-09-28T14:25:30.402Z,74.09
2022-09-28T14:30:43.812Z,74.10
2022-09-28T14:36:02.140Z,74.81
2022-09-28T14:41:15.800Z,74.80
2022-09-28T14:46:17.485Z,74.55
2022-09-28T14:51:31.699Z,75.02
2022-09-28T14:56:39.196Z,75.52
2022-09-28T15:01:43.770Z,75.51
2022-09-28T15:06:50.540Z,75.55
2022-09-28T15:11:57.517Z,75.58
2022-09-28T15:17:02.899Z,75.74
2022-09-28T15:22:17.170Z,75.68
2022-09-28T15:27:19.479Z,76.38
2022-09-28T15:32:25.864Z,76.54
2022-09-28T15:37:39.629Z,76.84
2022-09-28T15:42:44.716Z,76.86
2022-09-28T15:47:46.751Z,76.77
2022-09-28T15:52:59.086Z,76.67
2022-09-28T15:58:21.372Z,77.04
2022-09-28T16:03:29.817Z,77.31
2022-09-28T16:08:48.989Z,77.17
2022-09-28T16:13:56.169Z,77.49
2022-09-28T16:19:00.785Z,77.69
2022-09-28T16:24:03.321Z,77.54
2022-09-28T16:29:25.778Z,77.90
2022-09-28T16:34:29.068Z,77.67
2022-09-28T16:39:30.869Z,78.20
2022-09-28T16:44:35.831Z,78.57
2022-09-28T16:49:39.789Z,78.62
2022-09-28T16:54:59.908Z,78.70
2022-09-28T17:00:02.178Z,78.98
2022-09-28T17:05:06.482Z,78.43
2022-09-28T17:10:49.792Z,78.84
2022-09-28T17:15:55.492Z,79.38
2022-09-28T17:20:59.029Z,79.14
2022-09-28T17:26:02.051Z,78.68
2022-09-28T17:31:04.191Z,78.77
2022-09-28T17:36:06.762Z,79.17
2022-09-28T17:41:20.492Z,78.88
2022-09-28T17:46:30.684Z,78.94
2022-09-28T17:51:35.154Z,77.76
2022-09-28T17:56:36.904Z,77.46
2022-09-28T18:01:39.697Z,77.18
2022-09-28T18:06:42.583Z,77.03
2022-09-28T18:11:46.056Z,77.00
2022-09-28T18:16:48.517Z,76.55
2022-09-28T18:21:50.087Z,76.88
2022-09-28T18:26:51.720Z,76.16
2022-09-28T18:31:53.308Z,76.36
2022-09-28T18:36:55.168Z,76.13
2022-09-28T18:41:57.195Z,76.07
2022-09-28T18:47:00.167Z,76.24
2022-09-28T18:52:01.898Z,75.82
2022-09-28T18:57:05.313Z,76.11
2022-09-28T19:02:07.061Z,75.99
2022-09-28T19:07:08.998Z,75.95
2022-09-28T19:12:11.909Z,75.94
2022-09-28T19:17:13.699Z,75.47
2022-09-28T19:22:15.500Z,75.83
2022-09-28T19:27:17.458Z,75.27
2022-09-28T19:32:19.188Z,74.93
2022-09-28T19:37:20.986Z,75.34
2022-09-28T19:42:22.588Z,75.57
2022-09-28T19:47:24.396Z,75.50
2022-09-28T19:52:26.167Z,75.52
2022-09-28T19:57:30.522Z,75.65
2022-09-28T20:02:34.073Z,75.92
2022-09-28T20:07:36.751Z,75.73
2022-09-28T20:12:38.746Z,75.59
2022-09-28T20:17:40.484Z,75.60
2022-09-28T20:22:43.969Z,75.62
2022-09-28T20:27:46.027Z,75.44
2022-09-28T20:32:49.679Z,75.32
2022-09-28T20:37:51.388Z,75.43
2022-09-28T20:42:52.969Z,75.40
2022-09-28T20:47:54.521Z,75.51
2022-09-28T20:52:56.229Z,75.37
2022-09-28T20:58:02.329Z,75.95
2022-09-28T21:03:04.035Z,75.52
2022-09-28T21:08:05.838Z,75.77
2022-09-28T21:13:08.752Z,75.69
2022-09-28T21:18:10.341Z,75.59
2022-09-28T21:23:12.155Z,75.69
2022-09-28T21:28:15.693Z,76.25
2022-09-28T21:33:17.383Z,76.67
2022-09-28T21:38:19.019Z,76.92
2022-09-28T21:43:20.599Z,77.14
2022-09-28T21:48:24.013Z,77.34
2022-09-28T21:53:29.004Z,77.21
2022-09-28T21:58:33.321Z,77.70
2022-09-28T22:03:36.445Z,77.58
2022-09-28T22:08:39.044Z,77.75
2022-09-28T22:13:41.617Z,77.79
2022-09-28T22:18:43.955Z,77.90
2022-09-28T22:23:45.953Z,77.64
2022-09-28T22:28:53.000Z,78.14
2022-09-28T22:33:55.413Z,77.99
2022-09-28T22:38:58.242Z,77.86
2022-09-28T22:44:00.384Z,77.59
2022-09-28T22:49:02.173Z,77.57
2022-09-28T22:54:04.043Z,77.77
2022-09-28T22:59:05.709Z,78.12
2022-09-28T23:04:09.134Z,78.14
2022-09-28T23:09:10.796Z,78.39
2022-09-28T23:14:12.685Z,78.25
2022-09-28T23:19:14.373Z,79.22
2022-09-28T23:24:16.383Z,79.67
2022-09-28T23:29:18.147Z,80.33
2022-09-28T23:34:19.886Z,80.43
2022-09-28T23:39:21.649Z,80.47
2022-09-28T23:44:23.580Z,81.00
2022-09-28T23:49:25.364Z,81.07
2022-09-28T23:54:27.021Z,81.04
2022-09-28T23:59:28.629Z,81.38
